Wetterdaten: Woche 22.07.13 - 28.07.13 (KW30)
Datum Zeit Temp. A. Feuchte A. Luftdruck Regen Wind Richtung Taupunkt Windchill Windben
22.07.2013 00:00 14,3 C 87 % 1019,3 hPa 0,0 l/m 0,0 km/h (0 Bft) N 12,2 C 14,3 C 0,0 km/h (0 Bft)
22.07.2013 01:00 13,4 C 90 % 1019,2 hPa 0,0 l/m 0,0 km/h (0 Bft) N 11,7 C 13,4 C 0,0 km/h (0 Bft)
22.07.2013 02:00 12,2 C 90 % 1019,2 hPa 0,0 l/m 0,0 km/h (0 Bft) N 10,6 C 12,2 C 0,0 km/h (0 Bft)
22.07.2013 03:00 10,8 C 93 % 1018,9 hPa 0,0 l/m 0,0 km/h (0 Bft) N 9,7 C 10,8 C 0,0 km/h (0 Bft)
22.07.2013 04:00 10,9 C 94 % 1018,8 hPa 0,0 l/m 0,0 km/h (0 Bft) N 9,9 C 10,9 C 0,0 km/h (0 Bft)
22.07.2013 05:00 10,1 C 94 % 1018,7 hPa 0,0 l/m 0,0 km/h (0 Bft) N 9,2 C 10,1 C 0,0 km/h (0 Bft)
22.07.2013 06:00 11,3 C 94 % 1018,7 hPa 0,0 l/m 0,0 km/h (0 Bft) N 10,3 C 11,3 C 0,0 km/h (0 Bft)
22.07.2013 07:00 15,7 C 88 % 1018,5 hPa 0,0 l/m 0,0 km/h (0 Bft) N 13,7 C 15,7 C 0,0 km/h (0 Bft)
22.07.2013 08:00 21,5 C 67 % 1018,4 hPa 0,0 l/m 0,4 km/h (0 Bft) NO 14,9 C 21,5 C 1,3 km/h (1 Bft)
22.07.2013 09:00 25,6 C 51 % 1018,2 hPa 0,0 l/m 0,9 km/h (0 Bft) O-NO 14,8 C 25,6 C 3,1 km/h (1 Bft)
22.07.2013 10:00 28,0 C 41 % 1018,0 hPa 0,0 l/m 2,0 km/h (1 Bft) S-SW 13,4 C 28,0 C 5,3 km/h (1 Bft)
22.07.2013 11:00 29,3 C 33 % 1018,0 hPa 0,0 l/m 3,4 km/h (1 Bft) SO 11,4 C 29,3 C 8,4 km/h (2 Bft)
22.07.2013 12:00 30,0 C 30 % 1017,7 hPa 0,0 l/m 4,3 km/h (1 Bft) S-SO 10,6 C 30,0 C 9,5 km/h (2 Bft)
22.07.2013 13:00 30,9 C 28 % 1017,2 hPa 0,0 l/m 3,3 km/h (1 Bft) S 10,4 C 30,9 C 9,0 km/h (2 Bft)
22.07.2013 14:00 31,2 C 26 % 1016,5 hPa 0,0 l/m 3,8 km/h (1 Bft) NW 9,6 C 31,2 C 8,8 km/h (2 Bft)
22.07.2013 15:00 31,9 C 26 % 1016,0 hPa 0,0 l/m 4,8 km/h (1 Bft) W-NW 10,1 C 31,9 C 10,5 km/h (2 Bft)
22.07.2013 16:00 31,9 C 26 % 1015,5 hPa 0,0 l/m 3,6 km/h (1 Bft) N-NO 9,7 C 31,9 C 8,0 km/h (2 Bft)
22.07.2013 17:00 32,0 C 27 % 1015,1 hPa 0,0 l/m 4,8 km/h (1 Bft) NO 10,4 C 32,0 C 10,2 km/h (2 Bft)
22.07.2013 18:00 31,5 C 28 % 1014,9 hPa 0,0 l/m 4,4 km/h (1 Bft) N-NO 10,8 C 31,5 C 9,8 km/h (2 Bft)
22.07.2013 19:00 30,2 C 33 % 1014,7 hPa 0,0 l/m 4,8 km/h (1 Bft) N-NO 12,2 C 30,2 C 8,6 km/h (2 Bft)
22.07.2013 20:00 27,3 C 45 % 1014,5 hPa 0,0 l/m 1,4 km/h (1 Bft) N-NO 14,0 C 27,3 C 2,5 km/h (1 Bft)
22.07.2013 21:00 22,0 C 60 % 1014,7 hPa 0,0 l/m 0,3 km/h (0 Bft) N 14,0 C 22,0 C 0,4 km/h (0 Bft)
22.07.2013 22:00 19,2 C 69 % 1015,0 hPa 0,0 l/m 0,5 km/h (0 Bft) N-NO 13,4 C 19,2 C 1,1 km/h (0 Bft)
22.07.2013 23:00 19,1 C 70 % 1015,2 hPa 0,0 l/m 1,6 km/h (1 Bft) N-NO 13,5 C 19,1 C 2,9 km/h (1 Bft)
23.07.2013 00:00 17,3 C 76 % 1015,1 hPa 0,0 l/m 0,1 km/h (0 Bft) N-NW 13,1 C 17,3 C 0,3 km/h (0 Bft)
23.07.2013 01:00 15,6 C 82 % 1014,9 hPa 0,0 l/m 0,0 km/h (0 Bft) N 12,5 C 15,6 C 0,0 km/h (0 Bft)
23.07.2013 02:00 14,9 C 83 % 1014,8 hPa 0,0 l/m 0,0 km/h (0 Bft) N 12,1 C 14,9 C 0,0 km/h (0 Bft)
23.07.2013 03:00 13,5 C 88 % 1014,7 hPa 0,0 l/m 0,0 km/h (0 Bft) N 11,5 C 13,5 C 0,0 km/h (0 Bft)
23.07.2013 04:00 13,5 C 88 % 1014,5 hPa 0,0 l/m 0,0 km/h (0 Bft) N 11,6 C 13,5 C 0,0 km/h (0 Bft)
23.07.2013 05:00 12,6 C 89 % 1014,5 hPa 0,0 l/m 0,0 km/h (0 Bft) N 10,9 C 12,6 C 0,0 km/h (0 Bft)
23.07.2013 06:00 13,7 C 89 % 1014,4 hPa 0,0 l/m 0,0 km/h (0 Bft) N 11,9 C 13,7 C 0,0 km/h (0 Bft)
23.07.2013 07:00 18,0 C 80 % 1014,5 hPa 0,0 l/m 2,5 km/h (1 Bft) N-NO 14,5 C 18,0 C 4,9 km/h (1 Bft)
23.07.2013 08:00 21,5 C 69 % 1014,5 hPa 0,0 l/m 4,4 km/h (1 Bft) O 15,6 C 21,5 C 7,9 km/h (2 Bft)
23.07.2013 09:00 24,4 C 60 % 1014,5 hPa 0,0 l/m 3,5 km/h (1 Bft) NO 16,1 C 24,4 C 7,6 km/h (2 Bft)
23.07.2013 10:00 26,7 C 53 % 1014,3 hPa 0,0 l/m 4,5 km/h (1 Bft) O-NO 16,4 C 26,7 C 9,5 km/h (2 Bft)
23.07.2013 11:00 28,9 C 45 % 1014,2 hPa 0,0 l/m 7,5 km/h (2 Bft) NO 15,8 C 28,7 C 13,7 km/h (3 Bft)
23.07.2013 12:00 30,0 C 41 % 1013,9 hPa 0,0 l/m 6,7 km/h (2 Bft) NO 15,3 C 29,9 C 12,8 km/h (3 Bft)
23.07.2013 13:00 30,7 C 38 % 1013,7 hPa 0,0 l/m 7,0 km/h (2 Bft) N-NO 14,9 C 30,7 C 15,7 km/h (3 Bft)
23.07.2013 14:00 31,2 C 36 % 1013,6 hPa 0,0 l/m 7,9 km/h (2 Bft) N-NO 14,3 C 31,1 C 16,5 km/h (3 Bft)
23.07.2013 15:00 31,6 C 35 % 1013,1 hPa 0,0 l/m 8,8 km/h (2 Bft) N-NO 14,5 C 31,6 C 17,0 km/h (3 Bft)
23.07.2013 16:00 31,7 C 35 % 1012,8 hPa 0,0 l/m 7,1 km/h (2 Bft) N-NO 14,2 C 31,7 C 15,4 km/h (3 Bft)
23.07.2013 17:00 31,4 C 34 % 1012,5 hPa 0,0 l/m 9,3 km/h (2 Bft) N-NO 13,8 C 31,3 C 17,3 km/h (3 Bft)
23.07.2013 18:00 30,8 C 35 % 1012,3 hPa 0,0 l/m 7,9 km/h (2 Bft) N-NO 13,4 C 30,7 C 15,6 km/h (3 Bft)
23.07.2013 19:00 29,6 C 37 % 1012,4 hPa 0,0 l/m 6,5 km/h (2 Bft) O-NO 13,1 C 29,5 C 13,6 km/h (3 Bft)
23.07.2013 20:00 27,8 C 39 % 1012,5 hPa 0,0 l/m 5,2 km/h (1 Bft) O-NO 12,5 C 27,8 C 11,7 km/h (2 Bft)
23.07.2013 21:00 25,3 C 43 % 1012,9 hPa 0,0 l/m 3,3 km/h (1 Bft) O-NO 11,7 C 25,3 C 7,9 km/h (2 Bft)
23.07.2013 22:00 23,2 C 48 % 1013,5 hPa 0,0 l/m 2,5 km/h (1 Bft) O 11,4 C 23,2 C 5,7 km/h (2 Bft)
23.07.2013 23:00 21,9 C 52 % 1014,0 hPa 0,0 l/m 2,9 km/h (1 Bft) O-NO 11,7 C 21,9 C 7,5 km/h (2 Bft)
24.07.2013 00:00 19,9 C 61 % 1014,1 hPa 0,0 l/m 2,0 km/h (1 Bft) O-NO 12,2 C 19,9 C 5,1 km/h (1 Bft)
24.07.2013 01:00 18,6 C 67 % 1014,1 hPa 0,0 l/m 2,0 km/h (1 Bft) O-NO 12,4 C 18,6 C 6,1 km/h (2 Bft)
24.07.2013 02:00 16,4 C 76 % 1014,1 hPa 0,0 l/m 1,3 km/h (1 Bft) N-NO 12,0 C 16,4 C 2,9 km/h (1 Bft)
24.07.2013 03:00 17,0 C 70 % 1014,1 hPa 0,0 l/m 2,2 km/h (1 Bft) O-NO 11,6 C 17,0 C 5,5 km/h (2 Bft)
24.07.2013 04:00 16,4 C 70 % 1014,0 hPa 0,0 l/m 2,4 km/h (1 Bft) O 10,9 C 16,4 C 6,5 km/h (2 Bft)
24.07.2013 05:00 16,8 C 66 % 1014,1 hPa 0,0 l/m 2,1 km/h (1 Bft) O 10,4 C 16,8 C 6,8 km/h (2 Bft)
24.07.2013 06:00 17,7 C 63 % 1014,2 hPa 0,0 l/m 2,1 km/h (1 Bft) O 10,6 C 17,7 C 5,6 km/h (2 Bft)
24.07.2013 07:00 19,1 C 59 % 1014,0 hPa 0,0 l/m 4,0 km/h (1 Bft) O 10,8 C 19,1 C 9,1 km/h (2 Bft)
24.07.2013 08:00 21,0 C 52 % 1014,0 hPa 0,0 l/m 5,8 km/h (2 Bft) O 10,8 C 20,9 C 12,8 km/h (3 Bft)
24.07.2013 09:00 22,4 C 51 % 1014,0 hPa 0,0 l/m 5,2 km/h (1 Bft) O 11,6 C 22,3 C 11,7 km/h (2 Bft)
24.07.2013 10:00 24,4 C 46 % 1013,7 hPa 0,0 l/m 5,6 km/h (2 Bft) O-SO 12,0 C 24,3 C 11,8 km/h (2 Bft)
24.07.2013 11:00 26,5 C 42 % 1013,6 hPa 0,0 l/m 4,8 km/h (1 Bft) SO 12,6 C 26,5 C 10,6 km/h (2 Bft)
24.07.2013 12:00 27,9 C 41 % 1013,4 hPa 0,0 l/m 5,6 km/h (2 Bft) O-SO 13,3 C 27,9 C 13,6 km/h (3 Bft)
24.07.2013 13:00 29,4 C 38 % 1012,9 hPa 0,0 l/m 6,8 km/h (2 Bft) O-SO 13,7 C 29,3 C 14,8 km/h (3 Bft)
24.07.2013 14:00 30,7 C 35 % 1012,3 hPa 0,0 l/m 5,8 km/h (2 Bft) O-SO 13,3 C 30,7 C 13,0 km/h (3 Bft)
24.07.2013 15:00 32,0 C 32 % 1011,9 hPa 0,0 l/m 4,8 km/h (1 Bft) S-SO 13,4 C 32,0 C 11,7 km/h (2 Bft)
24.07.2013 16:00 31,3 C 34 % 1011,6 hPa 0,0 l/m 3,9 km/h (1 Bft) SW 13,4 C 31,3 C 9,1 km/h (2 Bft)
24.07.2013 17:00 29,9 C 38 % 1011,7 hPa 0,0 l/m 4,4 km/h (1 Bft) SW 13,9 C 29,9 C 9,0 km/h (2 Bft)
24.07.2013 18:00 27,8 C 49 % 1011,9 hPa 0,0 l/m 3,9 km/h (1 Bft) W-SW 15,8 C 27,7 C 10,7 km/h (2 Bft)
24.07.2013 19:00 24,7 C 65 % 1012,5 hPa 0,0 l/m 4,2 km/h (1 Bft) W-SW 17,6 C 24,7 C 11,0 km/h (2 Bft)
24.07.2013 20:00 23,6 C 68 % 1013,3 hPa 0,0 l/m 1,0 km/h (0 Bft) W-NW 17,3 C 23,6 C 3,5 km/h (1 Bft)
24.07.2013 21:00 21,7 C 82 % 1014,4 hPa 0,2 l/m 3,2 km/h (1 Bft) W 18,4 C 21,7 C 8,2 km/h (2 Bft)
24.07.2013 22:00 20,1 C 90 % 1014,7 hPa 0,0 l/m 0,3 km/h (0 Bft) N 18,4 C 20,1 C 1,3 km/h (1 Bft)
24.07.2013 23:00 19,5 C 93 % 1014,6 hPa 0,2 l/m 0,0 km/h (0 Bft) N 18,3 C 19,5 C 0,0 km/h (0 Bft)
25.07.2013 00:00 19,4 C 94 % 1014,7 hPa 0,0 l/m 0,2 km/h (0 Bft) SO 18,4 C 19,4 C 0,9 km/h (0 Bft)
25.07.2013 01:00 19,3 C 94 % 1014,8 hPa 0,0 l/m 0,0 km/h (0 Bft) N 18,3 C 19,3 C 0,1 km/h (0 Bft)
25.07.2013 02:00 19,2 C 95 % 1014,7 hPa 0,0 l/m 0,0 km/h (0 Bft) N 18,4 C 19,2 C 0,3 km/h (0 Bft)
25.07.2013 03:00 18,9 C 95 % 1014,6 hPa 0,0 l/m 0,0 km/h (0 Bft) N 18,0 C 18,9 C 0,0 km/h (0 Bft)
25.07.2013 04:00 18,0 C 95 % 1014,8 hPa 0,2 l/m 0,0 km/h (0 Bft) N 17,3 C 18,0 C 0,0 km/h (0 Bft)
25.07.2013 05:00 16,4 C 95 % 1014,7 hPa 0,0 l/m 0,0 km/h (0 Bft) N 15,7 C 16,4 C 0,0 km/h (0 Bft)
25.07.2013 06:00 16,9 C 96 % 1014,9 hPa 0,0 l/m 0,0 km/h (0 Bft) N 16,2 C 16,9 C 0,0 km/h (0 Bft)
25.07.2013 07:00 18,0 C 96 % 1015,2 hPa 0,0 l/m 0,1 km/h (0 Bft) N 17,4 C 18,0 C 0,9 km/h (0 Bft)
25.07.2013 08:00 19,7 C 94 % 1015,3 hPa 0,0 l/m 2,1 km/h (1 Bft) S-SO 18,6 C 19,7 C 6,0 km/h (2 Bft)
25.07.2013 09:00 21,4 C 87 % 1015,3 hPa 0,0 l/m 3,1 km/h (1 Bft) SW 19,1 C 21,4 C 7,1 km/h (2 Bft)
25.07.2013 10:00 23,2 C 80 % 1015,2 hPa 0,0 l/m 3,0 km/h (1 Bft) S-SW 19,4 C 23,2 C 6,5 km/h (2 Bft)
25.07.2013 11:00 24,8 C 71 % 1015,1 hPa 0,0 l/m 2,0 km/h (1 Bft) W-NW 19,0 C 24,8 C 6,1 km/h (2 Bft)
25.07.2013 12:00 27,0 C 61 % 1015,0 hPa 0,0 l/m 2,5 km/h (1 Bft) S-SW 18,8 C 27,0 C 7,6 km/h (2 Bft)
25.07.2013 13:00 27,1 C 60 % 1014,9 hPa 0,0 l/m 4,1 km/h (1 Bft) S-SO 18,5 C 27,1 C 9,8 km/h (2 Bft)
25.07.2013 14:00 28,4 C 54 % 1014,5 hPa 0,0 l/m 3,6 km/h (1 Bft) SW 18,1 C 28,4 C 9,4 km/h (2 Bft)
25.07.2013 15:00 29,1 C 49 % 1014,1 hPa 0,0 l/m 4,0 km/h (1 Bft) S-SW 17,2 C 29,1 C 9,8 km/h (2 Bft)
25.07.2013 16:00 28,5 C 52 % 1013,9 hPa 0,0 l/m 2,1 km/h (1 Bft) SW 17,7 C 28,5 C 6,0 km/h (2 Bft)
25.07.2013 17:00 28,7 C 52 % 1013,7 hPa 0,0 l/m 1,7 km/h (1 Bft) S-SO 17,7 C 28,7 C 5,2 km/h (1 Bft)
25.07.2013 18:00 28,5 C 52 % 1013,4 hPa 0,0 l/m 2,9 km/h (1 Bft) O 17,7 C 28,5 C 6,3 km/h (2 Bft)
25.07.2013 19:00 28,4 C 52 % 1013,6 hPa 0,0 l/m 1,5 km/h (1 Bft) O-SO 17,5 C 28,4 C 4,0 km/h (1 Bft)
25.07.2013 20:00 27,4 C 56 % 1013,8 hPa 0,0 l/m 0,7 km/h (0 Bft) O 17,8 C 27,4 C 1,2 km/h (1 Bft)
25.07.2013 21:00 22,9 C 75 % 1013,9 hPa 0,0 l/m 0,0 km/h (0 Bft) N 18,3 C 22,9 C 0,0 km/h (0 Bft)
25.07.2013 22:00 22,3 C 76 % 1014,2 hPa 0,0 l/m 1,0 km/h (0 Bft) S-SW 17,8 C 22,3 C 1,9 km/h (1 Bft)
25.07.2013 23:00 22,3 C 74 % 1014,4 hPa 0,0 l/m 0,2 km/h (0 Bft) N 17,3 C 22,3 C 0,7 km/h (0 Bft)
26.07.2013 00:00 20,7 C 82 % 1014,4 hPa 0,0 l/m 0,1 km/h (0 Bft) N 17,5 C 20,7 C 0,3 km/h (0 Bft)
26.07.2013 01:00 19,5 C 87 % 1014,4 hPa 0,0 l/m 0,0 km/h (0 Bft) N 17,2 C 19,5 C 0,0 km/h (0 Bft)
26.07.2013 02:00 19,1 C 88 % 1014,3 hPa 0,0 l/m 0,3 km/h (0 Bft) SW 17,0 C 19,1 C 0,7 km/h (0 Bft)
26.07.2013 03:00 18,3 C 89 % 1014,2 hPa 0,0 l/m 0,6 km/h (0 Bft) S-SW 16,5 C 18,3 C 1,7 km/h (1 Bft)
26.07.2013 04:00 17,6 C 89 % 1014,0 hPa 0,0 l/m 0,1 km/h (0 Bft) N 15,8 C 17,6 C 0,4 km/h (0 Bft)
26.07.2013 05:00 16,3 C 93 % 1014,0 hPa 0,0 l/m 0,0 km/h (0 Bft) N 15,1 C 16,3 C 0,0 km/h (0 Bft)
26.07.2013 06:00 17,3 C 92 % 1014,1 hPa 0,0 l/m 0,0 km/h (0 Bft) N 16,0 C 17,3 C 0,0 km/h (0 Bft)
26.07.2013 07:00 20,1 C 86 % 1014,3 hPa 0,0 l/m 0,6 km/h (0 Bft) S-SW 17,7 C 20,1 C 1,7 km/h (1 Bft)
26.07.2013 08:00 22,9 C 78 % 1014,4 hPa 0,0 l/m 2,5 km/h (1 Bft) S-SW 19,0 C 22,9 C 5,9 km/h (2 Bft)
26.07.2013 09:00 25,3 C 69 % 1014,2 hPa 0,0 l/m 2,4 km/h (1 Bft) W 19,2 C 25,3 C 6,1 km/h (2 Bft)
26.07.2013 10:00 26,9 C 62 % 1014,2 hPa 0,0 l/m 2,9 km/h (1 Bft) SW 18,9 C 26,9 C 7,5 km/h (2 Bft)
26.07.2013 11:00 28,2 C 56 % 1014,1 hPa 0,0 l/m 2,9 km/h (1 Bft) W-NW 18,5 C 28,2 C 7,1 km/h (2 Bft)
26.07.2013 12:00 29,3 C 51 % 1013,7 hPa 0,0 l/m 3,4 km/h (1 Bft) W-SW 18,1 C 29,3 C 8,6 km/h (2 Bft)
26.07.2013 13:00 30,1 C 48 % 1013,5 hPa 0,0 l/m 4,4 km/h (1 Bft) W 17,8 C 30,1 C 10,8 km/h (2 Bft)
26.07.2013 14:00 30,3 C 46 % 1013,3 hPa 0,0 l/m 3,6 km/h (1 Bft) S-SO 17,3 C 30,3 C 8,6 km/h (2 Bft)
26.07.2013 15:00 30,0 C 46 % 1013,2 hPa 0,0 l/m 3,8 km/h (1 Bft) SW 17,1 C 30,0 C 9,4 km/h (2 Bft)
26.07.2013 16:00 29,3 C 48 % 1012,9 hPa 0,0 l/m 2,8 km/h (1 Bft) W-SW 17,1 C 29,3 C 7,0 km/h (2 Bft)
26.07.2013 17:00 29,0 C 50 % 1012,7 hPa 0,0 l/m 2,5 km/h (1 Bft) W 17,5 C 29,0 C 6,5 km/h (2 Bft)
26.07.2013 18:00 26,6 C 62 % 1012,7 hPa 0,2 l/m 2,1 km/h (1 Bft) S-SW 18,7 C 26,6 C 5,2 km/h (1 Bft)
26.07.2013 19:00 23,7 C 77 % 1012,4 hPa 0,0 l/m 0,3 km/h (0 Bft) N 19,4 C 23,7 C 1,5 km/h (1 Bft)
26.07.2013 20:00 21,9 C 83 % 1013,3 hPa 2,0 l/m 1,4 km/h (1 Bft) W-SW 19,0 C 21,9 C 4,3 km/h (1 Bft)
26.07.2013 21:00 20,2 C 90 % 1013,5 hPa 0,2 l/m 0,9 km/h (0 Bft) S-SO 18,6 C 20,2 C 3,2 km/h (1 Bft)
26.07.2013 22:00 19,6 C 92 % 1013,0 hPa 0,0 l/m 0,8 km/h (0 Bft) SO 18,3 C 19,6 C 2,4 km/h (1 Bft)
26.07.2013 23:00 19,4 C 93 % 1012,6 hPa 0,0 l/m 0,0 km/h (0 Bft) N 18,2 C 19,4 C 0,1 km/h (0 Bft)
27.07.2013 00:00 19,3 C 93 % 1012,5 hPa 0,0 l/m 0,0 km/h (0 Bft) N 18,2 C 19,3 C 0,0 km/h (0 Bft)
27.07.2013 01:00 19,0 C 93 % 1012,3 hPa 0,0 l/m 0,0 km/h (0 Bft) N 17,8 C 19,0 C 0,0 km/h (0 Bft)
27.07.2013 02:00 18,0 C 94 % 1011,9 hPa 0,0 l/m 0,0 km/h (0 Bft) N 17,0 C 18,0 C 0,0 km/h (0 Bft)
27.07.2013 03:00 16,7 C 95 % 1011,6 hPa 0,0 l/m 0,0 km/h (0 Bft) N 15,9 C 16,7 C 0,0 km/h (0 Bft)
27.07.2013 04:00 16,0 C 95 % 1011,5 hPa 0,2 l/m 0,0 km/h (0 Bft) N 15,2 C 16,0 C 0,0 km/h (0 Bft)
27.07.2013 05:00 15,7 C 96 % 1011,5 hPa 0,0 l/m 0,0 km/h (0 Bft) N 15,1 C 15,7 C 0,0 km/h (0 Bft)
27.07.2013 06:00 15,9 C 96 % 1011,5 hPa 0,0 l/m 0,0 km/h (0 Bft) N 15,3 C 15,9 C 0,0 km/h (0 Bft)
27.07.2013 07:00 18,6 C 96 % 1011,4 hPa 0,0 l/m 0,0 km/h (0 Bft) N 18,0 C 18,6 C 0,0 km/h (0 Bft)
27.07.2013 08:00 21,7 C 88 % 1011,3 hPa 0,0 l/m 0,4 km/h (0 Bft) S 19,6 C 21,7 C 1,7 km/h (1 Bft)
27.07.2013 09:00 23,1 C 82 % 1011,1 hPa 0,0 l/m 1,5 km/h (1 Bft) S-SO 19,8 C 23,1 C 4,3 km/h (1 Bft)
27.07.2013 10:00 25,3 C 74 % 1010,6 hPa 0,0 l/m 2,9 km/h (1 Bft) N-NO 20,2 C 25,3 C 6,7 km/h (2 Bft)
27.07.2013 11:00 27,4 C 64 % 1010,4 hPa 0,0 l/m 2,8 km/h (1 Bft) SW 19,9 C 27,4 C 7,4 km/h (2 Bft)
27.07.2013 12:00 29,1 C 58 % 1009,9 hPa 0,0 l/m 3,7 km/h (1 Bft) NO 19,9 C 29,1 C 9,3 km/h (2 Bft)
27.07.2013 13:00 30,7 C 53 % 1009,3 hPa 0,0 l/m 3,9 km/h (1 Bft) SW 19,9 C 30,7 C 9,5 km/h (2 Bft)
27.07.2013 14:00 31,7 C 47 % 1008,7 hPa 0,0 l/m 4,0 km/h (1 Bft) S-SW 19,1 C 31,7 C 9,0 km/h (2 Bft)
27.07.2013 15:00 32,5 C 45 % 1008,0 hPa 0,0 l/m 2,9 km/h (1 Bft) O-SO 18,9 C 32,5 C 7,4 km/h (2 Bft)
27.07.2013 16:00 32,4 C 46 % 1007,7 hPa 0,0 l/m 2,6 km/h (1 Bft) S-SO 19,1 C 32,4 C 6,8 km/h (2 Bft)
27.07.2013 17:00 31,2 C 52 % 1007,3 hPa 0,0 l/m 0,4 km/h (0 Bft) S-SW 20,0 C 31,2 C 1,1 km/h (0 Bft)
27.07.2013 18:00 26,9 C 70 % 1006,8 hPa 0,0 l/m 1,6 km/h (1 Bft) O-NO 21,0 C 26,9 C 3,4 km/h (1 Bft)
27.07.2013 19:00 26,1 C 77 % 1006,5 hPa 0,0 l/m 1,5 km/h (1 Bft) O 21,8 C 26,1 C 3,9 km/h (1 Bft)
27.07.2013 20:00 25,8 C 79 % 1006,2 hPa 0,0 l/m 0,8 km/h (0 Bft) O 21,9 C 25,8 C 2,1 km/h (1 Bft)
27.07.2013 21:00 24,3 C 80 % 1005,9 hPa 0,0 l/m 0,2 km/h (0 Bft) N 20,6 C 24,3 C 0,7 km/h (0 Bft)
27.07.2013 22:00 22,5 C 84 % 1005,9 hPa 0,0 l/m 0,1 km/h (0 Bft) N 19,7 C 22,5 C 0,4 km/h (0 Bft)
27.07.2013 23:00 21,9 C 84 % 1005,7 hPa 0,0 l/m 0,5 km/h (0 Bft) N-NW 19,1 C 21,9 C 2,5 km/h (1 Bft)
28.07.2013 00:00 23,1 C 80 % 1005,6 hPa 0,0 l/m 1,4 km/h (1 Bft) O-SO 19,4 C 23,1 C 5,1 km/h (1 Bft)
28.07.2013 01:00 22,8 C 79 % 1005,4 hPa 0,0 l/m 0,0 km/h (0 Bft) N 19,1 C 22,8 C 0,7 km/h (0 Bft)
28.07.2013 02:00 20,7 C 86 % 1004,9 hPa 0,0 l/m 0,0 km/h (0 Bft) N 18,4 C 20,7 C 0,0 km/h (0 Bft)
28.07.2013 03:00 18,9 C 90 % 1004,3 hPa 0,0 l/m 0,0 km/h (0 Bft) N 17,3 C 18,9 C 0,0 km/h (0 Bft)
28.07.2013 04:00 20,7 C 89 % 1006,1 hPa 0,8 l/m 3,0 km/h (1 Bft) S-SO 18,8 C 20,7 C 8,7 km/h (2 Bft)
28.07.2013 05:00 20,7 C 88 % 1006,0 hPa 0,0 l/m 1,2 km/h (1 Bft) SO 18,6 C 20,7 C 3,7 km/h (1 Bft)
28.07.2013 06:00 20,1 C 90 % 1006,5 hPa 0,0 l/m 1,1 km/h (1 Bft) SW 18,3 C 20,1 C 3,1 km/h (1 Bft)
28.07.2013 07:00 21,4 C 87 % 1007,5 hPa 0,0 l/m 3,6 km/h (1 Bft) S-SW 19,1 C 21,4 C 7,8 km/h (2 Bft)
28.07.2013 08:00 24,3 C 76 % 1007,8 hPa 0,0 l/m 6,2 km/h (2 Bft) S-SW 19,9 C 24,3 C 14,0 km/h (3 Bft)
28.07.2013 09:00 26,3 C 66 % 1008,1 hPa 0,0 l/m 7,0 km/h (2 Bft) S 19,5 C 26,2 C 17,0 km/h (3 Bft)
28.07.2013 10:00 27,5 C 60 % 1008,3 hPa 0,0 l/m 6,9 km/h (2 Bft) W-SW 19,0 C 27,4 C 17,4 km/h (3 Bft)
28.07.2013 11:00 28,7 C 56 % 1008,8 hPa 0,0 l/m 7,0 km/h (2 Bft) W-NW 19,1 C 28,5 C 17,0 km/h (3 Bft)
28.07.2013 12:00 28,4 C 58 % 1009,0 hPa 0,0 l/m 5,9 km/h (2 Bft) W-SW 19,2 C 28,3 C 14,8 km/h (3 Bft)
28.07.2013 13:00 29,7 C 55 % 1009,1 hPa 0,0 l/m 6,5 km/h (2 Bft) W-SW 19,6 C 29,7 C 15,8 km/h (3 Bft)
28.07.2013 14:00 30,2 C 52 % 1009,3 hPa 0,0 l/m 5,7 km/h (2 Bft) W-NW 19,1 C 30,2 C 13,8 km/h (3 Bft)
28.07.2013 15:00 28,7 C 55 % 1010,2 hPa 0,0 l/m 5,1 km/h (1 Bft) W-SW 18,8 C 28,7 C 12,9 km/h (3 Bft)
28.07.2013 16:00 27,8 C 58 % 1010,5 hPa 0,0 l/m 5,1 km/h (1 Bft) SW 18,7 C 27,8 C 11,9 km/h (2 Bft)
28.07.2013 17:00 25,1 C 70 % 1011,0 hPa 0,0 l/m 3,0 km/h (1 Bft) W 19,1 C 25,1 C 8,7 km/h (2 Bft)
28.07.2013 18:00 23,4 C 74 % 1011,5 hPa 0,0 l/m 3,3 km/h (1 Bft) W-NW 18,5 C 23,4 C 9,0 km/h (2 Bft)
28.07.2013 19:00 21,9 C 81 % 1012,3 hPa 0,6 l/m 2,3 km/h (1 Bft) W 18,5 C 21,9 C 7,2 km/h (2 Bft)
28.07.2013 20:00 20,4 C 90 % 1012,6 hPa 0,4 l/m 0,3 km/h (0 Bft) SO 18,7 C 20,4 C 1,1 km/h (0 Bft)
28.07.2013 21:00 19,9 C 93 % 1012,8 hPa 0,0 l/m 0,0 km/h (0 Bft) N 18,7 C 19,9 C 0,0 km/h (0 Bft)
28.07.2013 22:00 19,4 C 94 % 1013,1 hPa 0,0 l/m 0,0 km/h (0 Bft) N 18,4 C 19,4 C 0,0 km/h (0 Bft)
28.07.2013 23:00 18,9 C 95 % 1012,9 hPa 0,0 l/m 0,0 km/h (0 Bft) N 18,0 C 18,9 C 0,0 km/h (0 Bft)
Min-Datum _ 22.07.13 22.07.13 28.07.13 - 22.07.13 - 22.07.13 22.07.13 22.07.13
_ Min-Zeit 05:50 15:10 03:55 - 00:00 - 05:50 05:50 00:00
Minimum _ 9,7 C 24 % 1004,1 hPa - 0,0 km/h (0 Bft) - 8,8 C 9,7 C 0,0 km/h (0 Bft)
Max-Datum _ 27.07.13 25.07.13 22.07.13 26.07.13 23.07.13 - 27.07.13 27.07.13 28.07.13
_ Max-Zeit 15:40 07:15 00:00 20:30 15:11 - 20:10 15:40 11:30
Maximum _ 33,0 C 97 % 1019,3 hPa 2,0 l/m 14,5 km/h
N-NO (3 Bft)
- 22,3 C 33,0 C 24,1 km/h
SW (4 Bft)
Durchschnitt _ 23,3 C 68 % 1013,0 hPa #5,0 l/m 2,4 km/h (1 Bft) S-SW 16,0 C 23,3 C 5,7 km/h (2 Bft)